メインページ
METAR-TAF:

METAR-TAF

空港 :

アルハンゲリスク, ロシア

緯度: 64-30N, 経度: 040-44E, 海抜: 13m

現時点の気象観測

当レポートは23分前の20:30(UTC)に作成
南/南東の風 8kt、東/南東から南/南西の間で変化する
気温 -1°C
湿度 100%
気圧 1012 hPa
視程: 6000m
高度300ftの曇り, 積乱雲.
弱いにわか雪

METAR: ULAA 112030Z 16004MPS 120V210 6000 -SHSN OVC003CB M01/M01 Q1012 R08/550343 NOSIG RMK QBB090 QFE758/1011

時間: 23:53 (20:53 UTC)

予報

当レポートは58分前の19:55(UTC)に作成
予報は11日の 21時(UTC)から 12日の 21時(UTC)まで有効
南/南東の風 10kt
視程: 4000m
高度400ftの千切れ雲あり
高度1100ftの千切れ雲あり, 積乱雲.
弱いにわか雪, 靄
11日の 21時(UTC)から 12日の 04時(UTC)まで一時的に
の風 10kt、最大19ktの突風を伴う
視程: 0500m
高度200ftの千切れ雲あり
高度1100ftの千切れ雲あり
大雪, (強い) 着氷性, 霧雨
12日の 0400時(UTC)から
南/南東の風 12kt
視程: 6000m
高度1100ftの千切れ雲あり
12日の 04時(UTC)から 12日の 21時(UTC)まで一時的に
南/南東の風 12kt、最大23ktの突風を伴う
視程: 3100m
高度500ftの千切れ雲あり
高度1100ftの千切れ雲あり, 積乱雲.
弱いにわか雪

TAF: ULAA 111955Z 1121/1221 16005MPS 4000 -SHSN BR BKN004 BKN011CB TEMPO 1121/1204 19005G10MPS 0500 +SN +FZDZ BKN002 BKN011 FM120400 16006MPS 6000 BKN011 TEMPO 1204/1221 16006G12MPS 3100 -SHSN BKN005 BKN011CB

4,000以上の空港の気象観測と天気予報(METAR報とTAF報)

利用可能な観測所は地図上に黄色い丸と赤い丸で示す。

丸の上にカーソルを重ねると観測所名を参照できる。

次にクリックすると気象観測と天気予報を参照できる。

マップの切り替え:黒色「×」印の緑ボタンをクリックして拡大、「-」印の緑ボタンをクリックして縮小、緑色の三角印をクリックして隣りの地図に切り替え


METAR-TAF: